Time;durP1;ratioP1;P1;durP2;ratioP2;P2;SDS_P1;SDS_P2;PMS_P1;PMS_P2;Temp;Humidity;BMP_temperature;BMP_pressure;BME280_temperature;BME280_humidity;BME280_pressure;Samples;Min_cycle;Max_cycle;Signal;HPM_P1;HPM_P2
2022/08/19 00:00:44;;;;;;;;;19.33;19.33;;;;;23.15;61.72;101131.13;5079596;28;45497;-76
2022/08/19 00:03:09;;;;;;;;;24.33;24.00;;;;;23.07;61.58;101122.34;5079550;28;45447;-76
2022/08/19 00:05:34;;;;;;;;;19.33;18.67;;;;;23.00;61.74;101127.13;5078985;28;46420;-76
2022/08/19 00:08:00;;;;;;;;;19.00;18.33;;;;;22.96;62.04;101134.13;5079351;28;45338;-76
2022/08/19 00:10:26;;;;;;;;;21.33;21.33;;;;;22.89;62.52;101137.00;5079726;28;45331;-76
2022/08/19 00:12:51;;;;;;;;;20.00;19.33;;;;;22.80;62.60;101128.47;5079297;28;45377;-76
2022/08/19 00:15:20;;;;;;;;;19.67;19.67;;;;;22.75;62.42;101131.13;5079264;28;45335;-76
2022/08/19 00:17:46;;;;;;;;;20.00;20.00;;;;;22.74;62.61;101134.06;5082032;27;45429;-76
2022/08/19 00:20:16;;;;;;;;;24.33;20.00;;;;;22.66;63.31;101133.41;5079608;28;45380;-76
2022/08/19 00:22:42;;;;;;;;;18.67;18.67;;;;;22.62;63.18;101137.66;5078927;27;45523;-76
2022/08/19 00:25:08;;;;;;;;;20.33;20.00;;;;;22.49;63.60;101127.97;5079116;28;47909;-76
2022/08/19 00:27:34;;;;;;;;;21.00;21.00;;;;;22.51;64.01;101136.63;5079380;28;45308;-76
2022/08/19 00:29:59;;;;;;;;;21.00;20.00;;;;;22.40;64.03;101127.53;5079039;28;45232;-76
2022/08/19 00:32:25;;;;;;;;;19.00;19.00;;;;;22.38;64.35;101132.38;5084505;27;45527;-76
2022/08/19 00:34:53;;;;;;;;;18.67;18.67;;;;;22.29;64.14;101129.25;5078886;28;46344;-76
2022/08/19 00:37:25;;;;;;;;;21.67;20.00;;;;;22.23;64.25;101135.63;5078831;28;45532;-76
2022/08/19 00:39:51;;;;;;;;;21.33;19.33;;;;;22.13;64.37;101138.97;5079185;28;45396;-76
2022/08/19 00:42:18;;;;;;;;;22.67;21.00;;;;;22.05;65.24;101128.53;5078783;28;45615;-76
2022/08/19 00:44:44;;;;;;;;;19.33;19.33;;;;;21.98;65.65;101128.69;5078852;28;45446;-76
2022/08/19 00:47:11;;;;;;;;;22.00;20.00;;;;;21.97;65.70;101137.06;5078886;28;45339;-76
2022/08/19 00:49:41;;;;;;;;;23.00;21.00;;;;;21.94;65.43;101143.78;5079404;28;45379;-76
2022/08/19 00:52:24;;;;;;;;;25.33;22.00;;;;;21.82;65.37;101127.59;5078755;27;45445;-76
2022/08/19 00:54:52;;;;;;;;;21.67;21.00;;;;;21.83;65.95;101142.75;5078609;28;45670;-76
2022/08/19 00:57:25;;;;;;;;;21.00;20.00;;;;;21.82;65.92;101144.63;5078644;28;45488;-76
2022/08/19 00:59:55;;;;;;;;;22.00;21.00;;;;;21.78;66.10;101140.75;5078678;28;45318;-76
2022/08/19 01:02:20;;;;;;;;;23.67;21.33;;;;;21.73;66.73;101131.69;5078426;28;45449;-75
2022/08/19 01:04:46;;;;;;;;;28.00;26.00;;;;;21.69;66.48;101128.63;5078781;28;45313;-76
2022/08/19 01:07:12;;;;;;;;;26.33;23.00;;;;;21.69;66.65;101129.47;5078988;28;45345;-76
2022/08/19 01:09:37;;;;;;;;;25.00;24.33;;;;;21.63;66.90;101129.59;5078775;28;45268;-76
2022/08/19 01:12:03;;;;;;;;;25.00;24.33;;;;;21.62;67.01;101141.47;5078947;28;45225;-76
2022/08/19 01:14:29;;;;;;;;;27.00;24.67;;;;;21.54;66.82;101131.84;5077459;27;45499;-76
2022/08/19 01:16:57;;;;;;;;;26.00;24.67;;;;;21.48;66.86;101130.94;5082902;27;45379;-76
2022/08/19 01:19:30;;;;;;;;;30.33;29.00;;;;;21.51;67.64;101141.28;5082212;28;45374;-76
2022/08/19 01:22:02;;;;;;;;;29.00;27.33;;;;;21.50;67.35;101128.00;5082171;28;45553;-76
2022/08/19 01:24:27;;;;;;;;;29.00;26.33;;;;;;;;5081570;28;45323;-76
2022/08/19 01:26:54;;;;;;;;;25.33;24.67;;;;;21.44;67.66;101133.31;5082157;28;45288;-76
2022/08/19 01:29:19;;;;;;;;;26.00;23.67;;;;;21.38;67.39;101133.41;5082117;28;45240;-76
2022/08/19 01:31:44;;;;;;;;;28.33;27.67;;;;;21.34;67.36;101138.47;5081887;28;45230;-76
2022/08/19 01:34:10;;;;;;;;;26.00;25.67;;;;;21.33;67.78;101130.63;5082135;28;45428;-76
2022/08/19 01:36:41;;;;;;;;;25.67;25.67;;;;;21.29;67.81;101133.81;5081763;28;45319;-76
2022/08/19 01:39:09;;;;;;;;;23.67;23.67;;;;;21.25;68.56;101137.22;5082154;28;45367;-76
2022/08/19 01:41:36;;;;;;;;;24.00;23.33;;;;;21.21;68.17;101131.44;5081456;28;45595;-76
2022/08/19 01:44:03;;;;;;;;;31.67;29.33;;;;;21.09;68.64;101117.09;5081560;28;46233;-76
2022/08/19 01:46:29;;;;;;;;;27.00;27.00;;;;;21.10;68.77;101133.09;5081733;28;45360;-76
2022/08/19 01:48:55;;;;;;;;;26.00;25.33;;;;;21.09;69.07;101141.41;5081870;28;45388;-76
2022/08/19 01:51:20;;;;;;;;;26.33;23.67;;;;;21.03;69.08;101141.31;5081817;27;45374;-76
2022/08/19 01:53:50;;;;;;;;;28.00;26.67;;;;;21.02;69.20;101146.97;5081565;28;45415;-76
2022/08/19 01:56:16;;;;;;;;;29.67;29.00;;;;;20.97;69.18;101150.38;5081519;28;45278;-76
2022/08/19 01:58:51;;;;;;;;;30.00;28.33;;;;;20.91;69.77;101149.44;5081501;28;45199;-76
2022/08/19 02:01:17;;;;;;;;;32.33;30.00;;;;;20.89;69.66;101139.88;5081470;28;45470;-76
2022/08/19 02:03:42;;;;;;;;;29.33;28.33;;;;;20.87;69.71;101148.22;5081195;28;45535;-76
2022/08/19 02:06:08;;;;;;;;;28.33;27.33;;;;;20.86;69.88;101151.16;5081614;28;45444;-76
2022/08/19 02:08:36;;;;;;;;;33.00;30.00;;;;;20.84;69.54;101143.28;5081551;28;45279;-76
2022/08/19 02:11:03;;;;;;;;;31.33;29.00;;;;;20.83;69.72;101147.03;5081230;27;45370;-76
2022/08/19 02:13:29;;;;;;;;;26.00;25.00;;;;;20.76;70.17;101144.44;5080937;28;45261;-76
2022/08/19 02:15:54;;;;;;;;;27.33;26.67;;;;;20.74;70.18;101145.75;5083609;27;45236;-76
2022/08/19 02:18:20;;;;;;;;;35.00;31.00;;;;;20.73;70.39;101152.19;5081614;28;45300;-76
2022/08/19 02:20:47;;;;;;;;;26.67;25.67;;;;;20.71;70.39;101163.22;5081258;28;45255;-76
2022/08/19 02:23:14;;;;;;;;;28.00;27.33;;;;;20.62;70.76;101154.63;5080934;27;46299;-75
2022/08/19 02:25:40;;;;;;;;;27.00;24.00;;;;;20.63;70.41;101158.16;5081124;28;45362;-76
2022/08/19 02:28:07;;;;;;;;;27.00;26.33;;;;;20.59;70.74;101162.38;5080155;27;45638;-76
2022/08/19 02:30:32;;;;;;;;;30.00;29.00;;;;;20.58;70.79;101163.41;5081180;27;45457;-76
2022/08/19 02:32:57;;;;;;;;;23.00;23.00;;;;;20.51;71.12;101158.13;5080883;28;46119;-76
2022/08/19 02:35:23;;;;;;;;;27.33;25.33;;;;;20.47;71.11;101162.34;5081040;28;45329;-76
2022/08/19 02:40:35;;;;;;;;;29.67;27.33;;;;;20.46;71.67;101161.53;5081004;28;45357;-76
2022/08/19 02:43:09;;;;;;;;;25.67;23.00;;;;;20.43;71.40;101157.41;5080370;28;45262;-76
2022/08/19 02:45:37;;;;;;;;;28.00;26.67;;;;;20.40;71.73;101155.19;5080938;28;45279;-76
2022/08/19 02:48:04;;;;;;;;;23.67;23.33;;;;;20.39;71.86;101158.94;5080908;28;45371;-76
2022/08/19 02:50:29;;;;;;;;;24.67;24.67;;;;;20.41;71.91;101162.22;5080514;28;45357;-76
2022/08/19 02:52:54;;;;;;;;;28.00;27.00;;;;;20.41;71.54;101174.91;5080582;28;45895;-76
2022/08/19 02:55:20;;;;;;;;;27.00;26.00;;;;;20.37;71.39;101169.13;5080642;28;45353;-76
2022/08/19 02:57:46;;;;;;;;;26.67;25.33;;;;;20.35;71.87;101168.53;5080675;28;45529;-76
2022/08/19 03:00:12;;;;;;;;;24.33;24.00;;;;;20.37;71.85;101176.41;5080678;28;45507;-76
2022/08/19 03:02:38;;;;;;;;;28.67;27.67;;;;;20.33;71.77;101164.41;5080399;28;45463;-76
2022/08/19 03:05:06;;;;;;;;;24.00;23.67;;;;;20.34;71.70;101168.75;5080733;28;45352;-76
2022/08/19 03:07:31;;;;;;;;;22.33;21.00;;;;;20.25;72.01;101152.91;5080334;28;45351;-76
2022/08/19 03:09:56;;;;;;;;;31.33;27.67;;;;;20.27;72.11;101153.50;5080439;28;45238;-76
2022/08/19 03:12:22;;;;;;;;;23.67;23.67;;;;;20.30;71.79;101163.81;5080507;28;46189;-76
2022/08/19 03:14:47;;;;;;;;;26.33;26.00;;;;;20.26;72.28;101157.25;5079841;28;45302;-76
2022/08/19 03:17:13;;;;;;;;;29.33;28.67;;;;;20.28;71.85;101159.72;5083341;27;45549;-75
2022/08/19 03:19:38;;;;;;;;;26.33;26.00;;;;;20.18;72.04;101158.38;5080014;28;45380;-76
2022/08/19 03:22:04;;;;;;;;;32.00;28.00;;;;;20.21;72.56;101158.97;5080250;28;45372;-76
2022/08/19 03:24:30;;;;;;;;;32.33;28.33;;;;;20.20;72.36;101160.84;5079952;28;45350;-76
2022/08/19 03:26:59;;;;;;;;;26.67;26.33;;;;;20.14;72.39;101146.41;5080485;28;45369;-76
2022/08/19 03:29:27;;;;;;;;;25.33;25.33;;;;;20.22;72.44;101163.31;5079850;28;45519;-76
2022/08/19 03:31:52;;;;;;;;;29.33;28.00;;;;;20.22;72.82;101164.16;5079896;28;45355;-76
2022/08/19 03:34:27;;;;;;;;;27.67;26.00;;;;;20.27;73.12;101166.16;5080076;28;45329;-76
2022/08/19 03:36:54;;;;;;;;;26.00;26.00;;;;;20.30;73.04;101169.22;5080179;28;45377;-76
2022/08/19 03:39:20;;;;;;;;;25.67;24.33;;;;;20.30;73.57;101160.31;5078800;28;45305;-76
2022/08/19 03:41:48;;;;;;;;;22.33;21.67;;;;;20.33;73.72;101156.31;5079693;28;45486;-76
2022/08/19 03:44:17;;;;;;;;;24.33;23.00;;;;;20.38;73.28;101165.38;5079881;28;45306;-76
2022/08/19 03:46:43;;;;;;;;;27.67;27.67;;;;;20.37;73.42;101165.59;5080122;28;45547;-76
2022/08/19 03:49:08;;;;;;;;;25.67;24.67;;;;;20.40;73.51;101167.84;5079827;28;45329;-76
2022/08/19 03:51:37;;;;;;;;;21.67;21.33;;;;;20.42;73.51;101166.56;5080052;28;45444;-76
2022/08/19 03:54:06;;;;;;;;;22.33;20.67;;;;;20.44;73.56;101161.75;5079570;28;45451;-76
2022/08/19 03:56:34;;;;;;;;;27.33;24.33;;;;;20.43;73.83;101162.81;5079755;28;45352;-76
2022/08/19 03:59:00;;;;;;;;;27.33;27.33;;;;;20.43;73.24;101160.13;5079217;28;45469;-76
2022/08/19 04:01:28;;;;;;;;;26.00;25.00;;;;;20.41;73.40;101151.41;5079631;28;45472;-76
2022/08/19 04:03:55;;;;;;;;;24.33;23.33;;;;;20.41;73.62;101153.31;5079675;28;45727;-76
2022/08/19 04:06:25;;;;;;;;;27.33;26.00;;;;;20.43;73.68;101151.19;5079611;28;45176;-76
2022/08/19 04:08:53;;;;;;;;;26.33;25.00;;;;;20.43;73.56;101152.03;5079422;28;45351;-76
2022/08/19 04:11:22;;;;;;;;;18.00;17.00;;;;;20.41;73.38;101161.41;5079225;28;45530;-76
2022/08/19 04:13:49;;;;;;;;;26.00;25.67;;;;;20.42;73.17;101161.16;5079128;28;45505;-76
2022/08/19 04:16:14;;;;;;;;;28.00;27.33;;;;;20.41;73.31;101162.22;5082037;27;45562;-77
2022/08/19 04:18:40;;;;;;;;;24.33;23.33;;;;;20.34;73.37;101147.16;5079450;28;45480;-76
2022/08/19 04:21:07;;;;;;;;;24.00;24.00;;;;;20.40;73.25;101155.19;5080220;28;45473;-77
2022/08/19 04:23:34;;;;;;;;;24.00;23.33;;;;;20.37;73.56;101157.50;5080950;28;45477;-77
2022/08/19 04:25:59;;;;;;;;;26.33;24.67;;;;;20.37;73.57;101150.25;5080451;28;45453;-77
2022/08/19 04:28:25;;;;;;;;;25.00;23.67;;;;;20.38;73.63;101154.56;5078998;28;45244;-76
2022/08/19 04:30:54;;;;;;;;;24.67;24.67;;;;;20.45;73.62;101149.09;5079225;28;45641;-76
2022/08/19 04:33:23;;;;;;;;;25.00;25.00;;;;;20.50;73.75;101159.19;5092238;27;45454;-76
2022/08/19 04:35:51;;;;;;;;;28.67;26.00;;;;;20.52;73.60;101167.88;5079217;28;45298;-76
2022/08/19 04:38:19;;;;;;;;;24.33;24.33;;;;;20.53;73.58;101169.53;5078990;28;45267;-76
2022/08/19 04:43:35;;;;;;;;;23.00;22.33;;;;;20.57;74.06;101173.41;5078871;28;45329;-75
2022/08/19 04:46:07;;;;;;;;;30.00;28.00;;;;;20.59;73.64;101175.88;5069258;28;45358;-76
2022/08/19 04:48:33;;;;;;;;;24.33;23.00;;;;;20.63;74.09;101180.59;5075847;28;45256;-76
2022/08/19 04:50:58;;;;;;;;;27.33;26.00;;;;;20.62;73.67;101170.03;5080796;28;45241;-76
2022/08/19 04:53:28;;;;;;;;;28.67;28.00;;;;;20.72;73.71;101177.56;5082732;28;45306;-76
2022/08/19 04:55:58;;;;;;;;;26.67;26.00;;;;;20.71;73.97;101182.13;5081942;28;45405;-75
2022/08/19 04:58:26;;;;;;;;;27.67;26.33;;;;;20.77;73.98;101170.38;5074255;28;45533;-76
2022/08/19 05:00:51;;;;;;;;;26.00;26.00;;;;;20.81;74.24;101170.75;5063637;28;45526;-75
2022/08/19 05:03:17;;;;;;;;;26.00;23.67;;;;;20.83;73.75;101170.53;5061786;28;45460;-76
2022/08/19 05:05:48;;;;;;;;;24.67;24.67;;;;;20.86;73.69;101176.28;5062707;28;45284;-75
2022/08/19 05:08:20;;;;;;;;;28.33;26.00;;;;;20.88;73.94;101178.75;5064470;28;45501;-75
2022/08/19 05:10:47;;;;;;;;;28.00;27.67;;;;;20.92;73.95;101182.69;5072330;28;46662;-75
2022/08/19 05:13:14;;;;;;;;;28.67;27.33;;;;;20.94;73.95;101185.94;5067548;28;45326;-75
2022/08/19 05:15:40;;;;;;;;;26.00;24.33;;;;;20.99;73.76;101193.34;5082967;27;45336;-74
2022/08/19 05:23:34;;;;;;;;;31.00;27.67;;;;;21.04;73.76;101185.38;5082959;28;45228;-75
2022/08/19 05:25:59;;;;;;;;;30.00;27.67;;;;;21.10;73.33;101189.81;5083114;28;45247;-75
2022/08/19 05:28:24;;;;;;;;;25.67;24.67;;;;;21.18;73.80;101200.31;5078659;28;45479;-74
2022/08/19 05:30:50;;;;;;;;;27.67;24.33;;;;;21.21;73.84;101193.59;5076062;28;45265;-75
2022/08/19 05:33:17;;;;;;;;;31.00;29.67;;;;;21.26;73.25;101193.72;5075709;28;45405;-78
2022/08/19 05:35:43;;;;;;;;;38.00;34.00;;;;;21.30;73.47;101188.66;5082469;28;45238;-77
2022/08/19 05:38:10;;;;;;;;;27.67;25.67;;;;;21.37;73.21;101193.97;5081870;28;45492;-78
2022/08/19 05:40:37;;;;;;;;;24.33;24.33;;;;;21.36;72.97;101193.13;5081532;28;45658;-78
2022/08/19 05:43:04;;;;;;;;;31.00;28.33;;;;;21.40;73.54;101194.28;5081783;28;45284;-78
2022/08/19 05:45:29;;;;;;;;;27.33;25.67;;;;;21.39;73.20;101192.66;5081729;28;45318;-77
2022/08/19 05:47:54;;;;;;;;;22.33;22.33;;;;;21.49;73.54;101197.44;5081862;28;45294;-78
2022/08/19 05:50:20;;;;;;;;;27.67;27.33;;;;;21.49;73.66;101191.25;5081851;28;46090;-77
2022/08/19 05:52:45;;;;;;;;;26.33;26.33;;;;;21.54;73.92;101194.03;5083652;28;45244;-77
2022/08/19 05:55:11;;;;;;;;;22.67;21.33;;;;;21.66;72.88;101208.38;5082014;28;45220;-77
2022/08/19 05:57:36;;;;;;;;;22.33;21.67;;;;;21.69;72.87;101197.09;5081471;28;45489;-77
2022/08/19 06:00:08;;;;;;;;;21.67;21.00;;;;;21.82;73.48;101197.94;5081551;28;45405;-78
2022/08/19 06:02:35;;;;;;;;;22.33;21.67;;;;;21.89;73.41;101201.31;5080664;28;45456;-79
2022/08/19 06:05:01;;;;;;;;;21.67;21.33;;;;;21.90;73.37;101192.13;5076438;28;45587;-76
2022/08/19 06:07:28;;;;;;;;;21.67;21.00;;;;;21.99;72.24;101208.81;5062787;28;45462;-76
2022/08/19 06:09:54;;;;;;;;;21.00;21.00;;;;;21.99;72.36;101197.97;5062554;28;45533;-75
2022/08/19 06:12:27;;;;;;;;;18.00;18.00;;;;;22.03;72.10;101209.97;5081384;28;45376;-76
2022/08/19 06:14:54;;;;;;;;;20.67;20.33;;;;;22.04;72.17;101203.50;5081172;28;45416;-75
2022/08/19 06:17:19;;;;;;;;;20.00;19.00;;;;;22.12;71.81;101204.19;5089667;27;45814;-77
2022/08/19 06:19:44;;;;;;;;;20.33;17.67;;;;;22.21;72.27;101208.16;5081201;28;45331;-75
2022/08/19 06:22:11;;;;;;;;;21.67;20.00;;;;;22.29;72.08;101198.81;5081116;28;45303;-76
2022/08/19 06:24:37;;;;;;;;;17.00;17.00;;;;;22.31;71.89;101205.63;5086760;27;45310;-77
2022/08/19 06:27:05;;;;;;;;;19.00;19.00;;;;;22.32;72.09;101201.03;5080781;28;45327;-76
2022/08/19 06:29:31;;;;;;;;;16.33;16.33;;;;;22.28;71.90;101208.00;5080985;28;46622;-76
2022/08/19 06:31:59;;;;;;;;;16.00;16.00;;;;;22.32;71.60;101214.56;5080938;28;45265;-77
2022/08/19 06:34:27;;;;;;;;;18.67;17.67;;;;;22.39;71.85;101220.66;5081017;28;45362;-76
2022/08/19 06:36:53;;;;;;;;;17.33;16.67;;;;;22.41;72.22;101207.69;5081020;28;45472;-76
2022/08/19 06:39:25;;;;;;;;;18.33;17.00;;;;;22.50;71.50;101212.69;5080561;28;45531;-77
2022/08/19 06:41:53;;;;;;;;;13.00;13.00;;;;;22.54;70.74;101214.69;5080906;28;45385;-76
2022/08/19 06:44:20;;;;;;;;;13.67;13.67;;;;;22.53;71.05;101204.09;5080748;28;45342;-77
2022/08/19 06:46:47;;;;;;;;;15.67;15.00;;;;;22.54;71.04;101213.88;5080947;28;45240;-76
2022/08/19 06:49:13;;;;;;;;;14.00;12.67;;;;;22.56;71.27;101220.69;5080484;28;45569;-76
2022/08/19 06:51:40;;;;;;;;;10.00;10.00;;;;;22.54;70.93;101217.41;5080881;28;45441;-77
2022/08/19 06:54:05;;;;;;;;;8.33;8.33;;;;;22.57;70.75;101222.34;5080621;28;45608;-76
2022/08/19 06:56:35;;;;;;;;;12.67;9.67;;;;;22.59;70.94;101226.72;5080516;28;45449;-74
2022/08/19 06:59:10;;;;;;;;;9.33;9.00;;;;;22.53;71.41;101226.59;5076142;28;45428;-77
2022/08/19 07:01:42;;;;;;;;;8.33;8.33;;;;;22.52;71.17;101233.09;5075112;28;45321;-78
2022/08/19 07:04:09;;;;;;;;;10.00;7.33;;;;;22.41;71.68;101229.34;5080538;28;45392;-76
2022/08/19 07:06:35;;;;;;;;;8.33;8.33;;;;;22.37;71.63;101227.38;5080708;28;45422;-78
2022/08/19 07:09:02;;;;;;;;;6.33;6.00;;;;;22.42;71.27;101241.03;5078233;28;46765;-77
2022/08/19 07:11:27;;;;;;;;;8.67;8.33;;;;;22.36;71.33;101226.56;5059695;28;45344;-78
2022/08/19 07:13:53;;;;;;;;;8.33;8.33;;;;;22.33;71.42;101240.59;5063130;28;45265;-78
2022/08/19 07:16:20;;;;;;;;;8.33;8.33;;;;;22.42;71.77;101251.84;5085630;27;45385;-76
2022/08/19 07:18:46;;;;;;;;;6.67;6.67;;;;;22.41;71.36;101244.78;5083480;27;46388;-76
2022/08/19 07:21:18;;;;;;;;;6.00;6.00;;;;;22.43;71.17;101248.06;5079993;28;45524;-76
2022/08/19 07:23:45;;;;;;;;;7.67;7.67;;;;;22.42;71.15;101232.91;5079703;28;45380;-76
2022/08/19 07:26:20;;;;;;;;;8.00;6.67;;;;;22.52;70.83;101252.03;5076144;28;45586;-76
2022/08/19 07:28:46;;;;;;;;;6.00;6.00;;;;;22.51;70.53;101236.03;5070329;28;46275;-76
2022/08/19 07:31:15;;;;;;;;;9.33;8.33;;;;;22.56;71.31;101247.78;5080087;28;45295;-75
2022/08/19 07:33:42;;;;;;;;;10.33;8.67;;;;;22.59;70.79;101241.06;5079133;28;45354;-77
2022/08/19 07:36:12;;;;;;;;;8.00;8.00;;;;;22.62;71.24;101245.22;5079911;28;45339;-76
2022/08/19 07:38:43;;;;;;;;;7.00;7.00;;;;;22.67;70.64;101242.56;5080737;28;46322;-78
2022/08/19 07:41:11;;;;;;;;;7.00;5.00;;;;;22.71;70.84;101235.59;5083765;28;45341;-76
2022/08/19 07:43:38;;;;;;;;;6.00;5.00;;;;;22.72;70.44;101236.44;5074300;28;45429;-77
2022/08/19 07:46:04;;;;;;;;;6.00;6.00;;;;;22.79;69.51;101256.06;5062077;28;45418;-78
2022/08/19 07:48:30;;;;;;;;;5.00;5.00;;;;;22.75;69.69;101250.31;5066968;28;45331;-79
2022/08/19 07:50:57;;;;;;;;;4.67;4.67;;;;;22.75;69.46;101249.47;5081148;28;45437;-78
2022/08/19 07:53:23;;;;;;;;;6.33;6.00;;;;;22.74;70.17;101250.56;5082912;28;45331;-78
2022/08/19 07:55:49;;;;;;;;;4.67;4.67;;;;;22.81;69.74;101259.34;5067465;28;45330;-77
2022/08/19 07:58:19;;;;;;;;;4.00;4.00;;;;;22.85;69.71;101259.66;5079828;28;45395;-78
2022/08/19 08:00:47;;;;;;;;;6.00;6.00;;;;;22.94;69.57;101256.31;5080189;28;45330;-76
2022/08/19 08:03:15;;;;;;;;;5.67;5.67;;;;;23.00;69.58;101261.81;5080355;28;45206;-77
2022/08/19 08:11:02;;;;;;;;;4.00;3.00;;;;;23.16;69.14;101265.59;5080852;28;45494;-77
2022/08/19 08:13:28;;;;;;;;;4.33;4.33;;;;;23.14;68.90;101254.19;5078903;28;45581;-80
2022/08/19 08:15:53;;;;;;;;;5.67;4.67;;;;;23.23;68.61;101268.97;5078174;27;45496;-78
2022/08/19 08:18:20;;;;;;;;;5.33;4.00;;;;;23.26;68.50;101257.66;5079880;27;46286;-77
2022/08/19 08:20:45;;;;;;;;;3.00;2.00;;;;;23.24;68.22;101248.09;5078293;28;45318;-77
2022/08/19 08:23:24;;;;;;;;;4.00;2.67;;;;;23.30;68.54;101263.38;5065710;28;45472;-76
2022/08/19 08:25:52;;;;;;;;;4.33;4.33;;;;;23.34;68.39;101267.22;5069910;28;45358;-77
2022/08/19 08:28:18;;;;;;;;;4.33;4.33;;;;;23.36;68.63;101273.22;5061484;27;45474;-77
2022/08/19 08:30:47;;;;;;;;;3.00;2.00;;;;;23.34;68.01;101267.22;5067584;28;45267;-77
2022/08/19 08:33:13;;;;;;;;;3.33;2.67;;;;;23.31;67.96;101271.25;5059728;28;45416;-78
2022/08/19 08:35:41;;;;;;;;;3.33;3.33;;;;;23.32;68.00;101272.09;5061890;28;45438;-78
2022/08/19 08:38:07;;;;;;;;;3.33;3.00;;;;;23.38;68.75;101264.88;5069602;28;46434;-78
2022/08/19 08:40:41;;;;;;;;;6.00;3.33;;;;;23.50;68.07;101287.31;5073071;28;45367;-78
2022/08/19 08:43:34;;;;;;;;;3.00;2.00;;;;;23.52;67.75;101276.22;5074753;28;45471;-78
2022/08/19 08:46:04;;;;;;;;;4.00;4.00;;;;;23.57;67.32;101276.28;5079829;28;45408;-78
2022/08/19 08:48:44;;;;;;;;;3.67;3.00;;;;;23.56;67.20;101266.50;5085993;28;46349;-78
2022/08/19 08:51:16;;;;;;;;;1.00;1.00;;;;;23.57;67.27;101284.41;5087970;27;45401;-77
2022/08/19 08:53:44;;;;;;;;;3.67;3.67;;;;;23.61;67.43;101282.84;5079248;28;45385;-77
2022/08/19 08:56:12;;;;;;;;;3.00;3.00;;;;;23.58;67.00;101276.03;5081204;28;45247;-77
2022/08/19 08:59:09;;;;;;;;;3.67;3.67;;;;;23.62;67.23;101289.94;5077912;28;46208;-78
2022/08/19 09:01:36;;;;;;;;;5.00;3.67;;;;;23.58;67.02;101286.88;5077648;28;45320;-78
2022/08/19 09:04:06;;;;;;;;;4.33;4.33;;;;;23.58;67.42;101280.63;5079846;28;45230;-78
2022/08/19 09:06:42;;;;;;;;;3.00;3.00;;;;;23.70;67.05;101284.06;5062667;28;46555;-78
2022/08/19 09:09:20;;;;;;;;;4.33;4.00;;;;;23.69;67.28;101274.28;5081693;28;46125;-78
2022/08/19 09:11:52;;;;;;;;;5.00;4.00;;;;;23.78;67.07;101290.13;5079957;28;45362;-79
2022/08/19 09:14:29;;;;;;;;;3.67;3.67;;;;;23.79;66.72;101289.88;5069576;28;45308;-78
2022/08/19 09:16:57;;;;;;;;;4.00;4.00;;;;;23.76;67.06;101276.81;5089560;27;45551;-78
2022/08/19 09:19:22;;;;;;;;;3.33;3.33;;;;;23.94;66.63;101281.13;5071881;28;48108;-78
2022/08/19 09:21:49;;;;;;;;;2.33;2.33;;;;;24.07;66.62;101279.09;5081311;27;45363;-75
2022/08/19 09:24:14;;;;;;;;;7.00;5.67;;;;;24.23;66.30;101282.03;5064475;28;45305;-76
2022/08/19 09:26:40;;;;;;;;;3.00;3.00;;;;;24.23;65.29;101272.00;5077707;28;45290;-76
2022/08/19 09:29:05;;;;;;;;;3.00;3.00;;;;;24.25;65.73;101275.28;5076377;28;45539;-79
2022/08/19 09:31:32;;;;;;;;;6.00;6.00;;;;;24.39;65.56;101281.13;5078633;28;45433;-79
2022/08/19 09:33:59;;;;;;;;;5.00;5.00;;;;;24.45;65.89;101271.13;5078530;28;45499;-78
2022/08/19 09:36:28;;;;;;;;;4.67;4.67;;;;;24.59;65.34;101272.38;5064289;28;45248;-79
2022/08/19 09:38:55;;;;;;;;;4.33;4.33;;;;;24.63;64.88;101280.81;5081831;28;46159;-79
2022/08/19 09:41:23;;;;;;;;;3.67;3.67;;;;;24.61;64.54;101283.00;5081853;28;45544;-78
2022/08/19 09:43:52;;;;;;;;;5.33;5.33;;;;;24.64;65.02;101281.66;5080807;28;45553;-79
2022/08/19 09:46:20;;;;;;;;;3.67;3.67;;;;;24.71;65.00;101285.81;5080997;28;45634;-78
2022/08/19 09:48:48;;;;;;;;;3.00;3.00;;;;;24.77;64.27;101289.38;5081216;28;45565;-79
2022/08/19 09:51:17;;;;;;;;;5.33;5.00;;;;;24.89;64.63;101288.44;5081972;27;45243;-78
2022/08/19 09:53:53;;;;;;;;;4.00;4.00;;;;;24.86;63.92;101278.03;5081979;28;45347;-78
2022/08/19 09:56:22;;;;;;;;;2.00;2.00;;;;;24.84;64.24;101281.84;5067974;28;45352;-79
2022/08/19 09:58:48;;;;;;;;;4.00;4.00;;;;;24.85;64.12;101269.09;5081585;28;46308;-78
2022/08/19 10:01:19;;;;;;;;;3.67;3.67;;;;;24.85;63.81;101279.94;5063633;28;45371;-79
2022/08/19 10:03:48;;;;;;;;;3.67;3.67;;;;;24.82;63.73;101275.88;5068718;28;45429;-79
2022/08/19 10:06:13;;;;;;;;;6.33;6.33;;;;;24.84;63.56;101286.44;5081624;28;45262;-79
2022/08/19 10:08:39;;;;;;;;;4.00;4.00;;;;;24.84;63.88;101278.28;5081131;28;45328;-79
2022/08/19 10:11:05;;;;;;;;;5.00;4.00;;;;;24.94;63.50;101277.63;5081406;28;45237;-79
2022/08/19 10:13:31;;;;;;;;;4.00;4.00;;;;;25.01;63.39;101286.38;5081310;28;45265;-79
2022/08/19 10:16:05;;;;;;;;;2.33;2.33;;;;;25.00;63.19;101279.31;5073070;27;45510;-78
2022/08/19 10:18:33;;;;;;;;;4.00;4.00;;;;;25.07;63.49;101274.47;5064314;28;45497;-77
2022/08/19 10:21:10;;;;;;;;;5.00;5.00;;;;;25.29;62.96;101280.88;5082209;28;45381;-77
2022/08/19 10:23:37;;;;;;;;;4.33;4.33;;;;;25.39;62.86;101275.50;5077105;28;45412;-76
2022/08/19 10:26:05;;;;;;;;;3.00;3.00;;;;;25.44;62.34;101272.00;5067384;28;46406;-77
2022/08/19 10:28:32;;;;;;;;;6.67;5.00;;;;;25.60;62.80;101281.09;5078067;28;46459;-78
2022/08/19 10:30:57;;;;;;;;;2.33;2.33;;;;;25.65;62.00;101272.94;5082575;27;45361;-77
2022/08/19 10:33:24;;;;;;;;;4.00;4.00;;;;;25.69;61.19;101284.97;5084151;28;45375;-77
2022/08/19 10:35:59;;;;;;;;;4.00;4.00;;;;;25.63;61.65;101275.13;5064506;28;45369;-78
2022/08/19 10:38:25;;;;;;;;;4.00;4.00;;;;;25.69;61.59;101292.31;5079275;28;45561;-78
2022/08/19 10:40:50;;;;;;;;;5.33;5.00;;;;;25.59;61.53;101282.16;5081322;28;45537;-78
2022/08/19 10:43:16;;;;;;;;;3.00;3.00;;;;;25.52;61.69;101274.22;5070722;27;45692;-78
2022/08/19 10:45:42;;;;;;;;;4.00;4.00;;;;;25.58;61.52;101283.22;5084024;28;45376;-78
2022/08/19 10:48:07;;;;;;;;;4.67;4.67;;;;;25.58;61.91;101283.22;5082414;28;46365;-78
2022/08/19 10:53:17;;;;;;;;;6.00;6.00;;;;;25.49;61.99;101271.22;5079326;28;45311;-77
2022/08/19 10:58:28;;;;;;;;;4.33;4.00;;;;;25.45;62.47;101277.19;5081267;28;45346;-78
2022/08/19 11:00:58;;;;;;;;;4.00;4.00;;;;;25.52;62.49;101276.94;5082906;28;45264;-78
2022/08/19 11:03:25;;;;;;;;;4.33;4.33;;;;;25.46;61.97;101265.22;5083236;28;45346;-78
2022/08/19 11:06:01;;;;;;;;;5.33;4.00;;;;;25.55;61.71;101265.53;5076382;28;45500;-77
2022/08/19 11:08:27;;;;;;;;;3.33;3.33;;;;;25.65;61.51;101264.78;5080648;27;45393;-77
2022/08/19 11:11:00;;;;;;;;;4.00;4.00;;;;;25.74;61.58;101248.81;5081591;28;45664;-78
2022/08/19 11:13:28;;;;;;;;;4.33;3.00;;;;;25.92;61.22;101254.88;5081704;28;45501;-77
2022/08/19 11:16:02;;;;;;;;;4.00;4.00;;;;;25.96;61.05;101255.97;5082141;27;45398;-76
2022/08/19 11:18:28;;;;;;;;;5.33;5.33;;;;;26.04;60.70;101235.56;5085541;28;46471;-79
2022/08/19 11:20:53;;;;;;;;;5.00;5.00;;;;;26.23;61.01;101252.22;5084013;28;45547;-78
2022/08/19 11:23:18;;;;;;;;;5.67;5.67;;;;;26.33;59.91;101244.13;5082989;28;45188;-77
2022/08/19 11:25:45;;;;;;;;;5.33;5.33;;;;;26.55;59.61;101245.78;5081689;28;45236;-78
2022/08/19 11:28:11;;;;;;;;;5.00;5.00;;;;;26.80;59.36;101248.78;5082505;28;45588;-77
2022/08/19 11:30:38;;;;;;;;;5.00;5.00;;;;;26.88;58.69;101245.53;5069035;28;45267;-78
2022/08/19 11:33:03;;;;;;;;;4.00;4.00;;;;;26.90;58.21;101239.81;5083818;28;45353;-78
2022/08/19 11:35:29;;;;;;;;;3.00;3.00;;;;;26.93;58.56;101241.97;5060942;28;45483;-80
2022/08/19 11:37:55;;;;;;;;;4.00;4.00;;;;;26.97;58.76;101243.06;5082858;28;45492;-79
2022/08/19 11:40:21;;;;;;;;;4.00;4.00;;;;;26.99;58.10;101234.66;5105371;27;45287;-77